sensor_id;sensor_type;location;lat;lon;timestamp;temperature;humidity
5055;DHT22;13829;48.990;8.346;2023-07-13T00:00:10;18.70;99.90
5055;DHT22;13829;48.990;8.346;2023-07-13T00:02:41;18.50;99.90
5055;DHT22;13829;48.990;8.346;2023-07-13T00:05:09;18.50;99.90
5055;DHT22;13829;48.990;8.346;2023-07-13T00:07:38;18.50;99.90
5055;DHT22;13829;48.990;8.346;2023-07-13T00:10:06;18.50;99.90
5055;DHT22;13829;48.990;8.346;2023-07-13T00:12:37;18.50;99.90
5055;DHT22;13829;48.990;8.346;2023-07-13T00:15:09;18.50;99.90
5055;DHT22;13829;48.990;8.346;2023-07-13T00:17:39;18.50;99.90
5055;DHT22;13829;48.990;8.346;2023-07-13T00:20:07;18.40;99.90
5055;DHT22;13829;48.990;8.346;2023-07-13T00:22:35;18.40;99.90
5055;DHT22;13829;48.990;8.346;2023-07-13T00:25:04;18.40;99.90
5055;DHT22;13829;48.990;8.346;2023-07-13T00:27:31;18.40;99.90
5055;DHT22;13829;48.990;8.346;2023-07-13T00:29:58;18.50;99.90
5055;DHT22;13829;48.990;8.346;2023-07-13T00:32:25;18.30;99.90
5055;DHT22;13829;48.990;8.346;2023-07-13T00:34:52;18.20;99.90
5055;DHT22;13829;48.990;8.346;2023-07-13T00:37:19;18.20;99.90
5055;DHT22;13829;48.990;8.346;2023-07-13T00:39:46;18.10;99.90
5055;DHT22;13829;48.990;8.346;2023-07-13T00:42:15;18.10;99.90
5055;DHT22;13829;48.990;8.346;2023-07-13T00:45:04;18.10;99.90
5055;DHT22;13829;48.990;8.346;2023-07-13T00:47:33;18.00;99.90
5055;DHT22;13829;48.990;8.346;2023-07-13T00:50:01;18.00;99.90
5055;DHT22;13829;48.990;8.346;2023-07-13T00:52:29;18.00;99.90
5055;DHT22;13829;48.990;8.346;2023-07-13T00:54:57;18.00;99.90
5055;DHT22;13829;48.990;8.346;2023-07-13T00:57:27;17.90;99.90
5055;DHT22;13829;48.990;8.346;2023-07-13T00:59:57;17.90;99.90
5055;DHT22;13829;48.990;8.346;2023-07-13T01:02:32;18.00;99.90
5055;DHT22;13829;48.990;8.346;2023-07-13T01:05:00;17.90;99.90
5055;DHT22;13829;48.990;8.346;2023-07-13T01:07:28;17.80;99.90
5055;DHT22;13829;48.990;8.346;2023-07-13T01:09:55;17.70;99.90
5055;DHT22;13829;48.990;8.346;2023-07-13T01:12:22;17.70;99.90
5055;DHT22;13829;48.990;8.346;2023-07-13T01:14:57;17.70;99.90
5055;DHT22;13829;48.990;8.346;2023-07-13T01:17:26;17.70;99.90
5055;DHT22;13829;48.990;8.346;2023-07-13T01:19:54;17.70;99.90
5055;DHT22;13829;48.990;8.346;2023-07-13T01:22:23;17.70;99.90
5055;DHT22;13829;48.990;8.346;2023-07-13T01:24:53;17.60;99.90
5055;DHT22;13829;48.990;8.346;2023-07-13T01:27:22;17.50;99.90
5055;DHT22;13829;48.990;8.346;2023-07-13T01:29:51;17.40;99.90
5055;DHT22;13829;48.990;8.346;2023-07-13T01:32:27;17.40;99.90
5055;DHT22;13829;48.990;8.346;2023-07-13T01:34:54;17.40;99.90
5055;DHT22;13829;48.990;8.346;2023-07-13T01:37:24;17.40;99.90
5055;DHT22;13829;48.990;8.346;2023-07-13T01:39:52;17.40;99.90
5055;DHT22;13829;48.990;8.346;2023-07-13T01:42:19;17.30;99.90
5055;DHT22;13829;48.990;8.346;2023-07-13T01:44:46;17.40;99.90
5055;DHT22;13829;48.990;8.346;2023-07-13T01:47:13;17.40;99.90
5055;DHT22;13829;48.990;8.346;2023-07-13T01:49:40;17.30;99.90
5055;DHT22;13829;48.990;8.346;2023-07-13T01:52:07;17.20;99.90
5055;DHT22;13829;48.990;8.346;2023-07-13T01:54:35;17.20;99.90
5055;DHT22;13829;48.990;8.346;2023-07-13T01:57:03;17.30;99.90
5055;DHT22;13829;48.990;8.346;2023-07-13T01:59:30;17.10;99.90
5055;DHT22;13829;48.990;8.346;2023-07-13T02:01:58;17.00;99.90
5055;DHT22;13829;48.990;8.346;2023-07-13T02:04:25;17.00;99.90
5055;DHT22;13829;48.990;8.346;2023-07-13T02:06:52;17.00;99.90
5055;DHT22;13829;48.990;8.346;2023-07-13T02:09:21;17.00;99.90
5055;DHT22;13829;48.990;8.346;2023-07-13T02:11:49;17.00;99.90
5055;DHT22;13829;48.990;8.346;2023-07-13T02:14:16;16.90;99.90
5055;DHT22;13829;48.990;8.346;2023-07-13T02:16:43;16.90;99.90
5055;DHT22;13829;48.990;8.346;2023-07-13T02:19:10;16.90;99.90
5055;DHT22;13829;48.990;8.346;2023-07-13T02:21:37;16.80;99.90
5055;DHT22;13829;48.990;8.346;2023-07-13T02:24:04;16.80;99.90
5055;DHT22;13829;48.990;8.346;2023-07-13T02:26:31;16.70;99.90
5055;DHT22;13829;48.990;8.346;2023-07-13T02:28:59;16.70;99.90
5055;DHT22;13829;48.990;8.346;2023-07-13T02:31:26;16.60;99.90
5055;DHT22;13829;48.990;8.346;2023-07-13T02:33:53;16.60;99.90
5055;DHT22;13829;48.990;8.346;2023-07-13T02:36:20;16.50;99.90
5055;DHT22;13829;48.990;8.346;2023-07-13T02:38:49;16.50;99.90
5055;DHT22;13829;48.990;8.346;2023-07-13T02:41:16;16.40;99.90
5055;DHT22;13829;48.990;8.346;2023-07-13T02:43:43;16.40;99.90
5055;DHT22;13829;48.990;8.346;2023-07-13T02:46:11;16.40;99.90
5055;DHT22;13829;48.990;8.346;2023-07-13T02:48:39;16.40;99.90
5055;DHT22;13829;48.990;8.346;2023-07-13T02:51:06;16.30;99.90
5055;DHT22;13829;48.990;8.346;2023-07-13T02:53:34;16.30;99.90
5055;DHT22;13829;48.990;8.346;2023-07-13T02:56:01;16.20;99.90
5055;DHT22;13829;48.990;8.346;2023-07-13T02:58:28;16.10;99.90
5055;DHT22;13829;48.990;8.346;2023-07-13T03:00:56;16.00;99.90
5055;DHT22;13829;48.990;8.346;2023-07-13T03:03:24;16.00;99.90
5055;DHT22;13829;48.990;8.346;2023-07-13T03:05:59;16.00;99.90
5055;DHT22;13829;48.990;8.346;2023-07-13T03:08:27;16.10;99.90
5055;DHT22;13829;48.990;8.346;2023-07-13T03:10:59;16.10;99.90
5055;DHT22;13829;48.990;8.346;2023-07-13T03:13:27;16.10;99.90
5055;DHT22;13829;48.990;8.346;2023-07-13T03:15:53;16.10;99.90
5055;DHT22;13829;48.990;8.346;2023-07-13T03:18:21;16.10;99.90
5055;DHT22;13829;48.990;8.346;2023-07-13T03:20:51;16.10;99.90
5055;DHT22;13829;48.990;8.346;2023-07-13T03:23:20;16.20;99.90
5055;DHT22;13829;48.990;8.346;2023-07-13T03:25:48;16.20;99.90
5055;DHT22;13829;48.990;8.346;2023-07-13T03:28:15;16.30;99.90
5055;DHT22;13829;48.990;8.346;2023-07-13T03:30:42;16.20;99.90
5055;DHT22;13829;48.990;8.346;2023-07-13T03:33:09;16.30;99.90
5055;DHT22;13829;48.990;8.346;2023-07-13T03:35:40;16.20;99.90
5055;DHT22;13829;48.990;8.346;2023-07-13T03:38:09;16.20;99.90
5055;DHT22;13829;48.990;8.346;2023-07-13T03:40:36;16.10;99.90
5055;DHT22;13829;48.990;8.346;2023-07-13T03:43:03;16.00;99.90
5055;DHT22;13829;48.990;8.346;2023-07-13T03:45:30;15.90;99.90
5055;DHT22;13829;48.990;8.346;2023-07-13T03:47:56;15.90;99.90
5055;DHT22;13829;48.990;8.346;2023-07-13T03:50:23;15.90;99.90
5055;DHT22;13829;48.990;8.346;2023-07-13T03:52:50;15.80;99.90
5055;DHT22;13829;48.990;8.346;2023-07-13T03:55:19;15.90;99.90
5055;DHT22;13829;48.990;8.346;2023-07-13T03:57:45;15.90;99.90
5055;DHT22;13829;48.990;8.346;2023-07-13T04:00:13;15.80;99.90
5055;DHT22;13829;48.990;8.346;2023-07-13T04:02:41;15.90;99.90
5055;DHT22;13829;48.990;8.346;2023-07-13T04:05:08;15.90;99.90
5055;DHT22;13829;48.990;8.346;2023-07-13T04:07:35;16.00;99.90
5055;DHT22;13829;48.990;8.346;2023-07-13T04:10:02;16.00;99.90
5055;DHT22;13829;48.990;8.346;2023-07-13T04:12:31;16.00;99.90
5055;DHT22;13829;48.990;8.346;2023-07-13T04:14:58;16.10;99.90
5055;DHT22;13829;48.990;8.346;2023-07-13T04:17:24;16.20;99.90
5055;DHT22;13829;48.990;8.346;2023-07-13T04:19:51;16.30;99.90
5055;DHT22;13829;48.990;8.346;2023-07-13T04:22:18;16.40;99.90
5055;DHT22;13829;48.990;8.346;2023-07-13T04:24:45;16.40;99.90
5055;DHT22;13829;48.990;8.346;2023-07-13T04:27:12;16.50;99.90
5055;DHT22;13829;48.990;8.346;2023-07-13T04:29:40;16.60;99.90
5055;DHT22;13829;48.990;8.346;2023-07-13T04:32:08;16.70;99.90
5055;DHT22;13829;48.990;8.346;2023-07-13T04:34:35;16.90;99.90
5055;DHT22;13829;48.990;8.346;2023-07-13T04:37:02;17.10;99.90
5055;DHT22;13829;48.990;8.346;2023-07-13T04:39:30;17.20;99.90
5055;DHT22;13829;48.990;8.346;2023-07-13T04:41:56;17.30;99.90
5055;DHT22;13829;48.990;8.346;2023-07-13T04:44:23;17.40;99.90
5055;DHT22;13829;48.990;8.346;2023-07-13T04:46:52;17.50;99.90
5055;DHT22;13829;48.990;8.346;2023-07-13T04:49:18;17.60;99.90
5055;DHT22;13829;48.990;8.346;2023-07-13T04:51:45;17.80;99.90
5055;DHT22;13829;48.990;8.346;2023-07-13T04:54:12;17.90;99.90
5055;DHT22;13829;48.990;8.346;2023-07-13T04:56:39;17.90;99.90
5055;DHT22;13829;48.990;8.346;2023-07-13T04:59:06;18.00;99.90
5055;DHT22;13829;48.990;8.346;2023-07-13T05:01:33;18.10;99.90
5055;DHT22;13829;48.990;8.346;2023-07-13T05:04:01;18.20;99.90
5055;DHT22;13829;48.990;8.346;2023-07-13T05:06:28;18.20;99.90
5055;DHT22;13829;48.990;8.346;2023-07-13T05:08:56;18.30;99.90
5055;DHT22;13829;48.990;8.346;2023-07-13T05:11:24;18.40;99.90
5055;DHT22;13829;48.990;8.346;2023-07-13T05:13:51;18.40;99.90
5055;DHT22;13829;48.990;8.346;2023-07-13T05:16:18;18.50;99.90
5055;DHT22;13829;48.990;8.346;2023-07-13T05:18:45;18.50;99.90
5055;DHT22;13829;48.990;8.346;2023-07-13T05:21:14;18.50;99.90
5055;DHT22;13829;48.990;8.346;2023-07-13T05:23:41;18.60;99.90
5055;DHT22;13829;48.990;8.346;2023-07-13T05:26:08;18.60;99.90
5055;DHT22;13829;48.990;8.346;2023-07-13T05:28:35;18.60;99.90
5055;DHT22;13829;48.990;8.346;2023-07-13T05:31:02;18.60;99.90
5055;DHT22;13829;48.990;8.346;2023-07-13T05:33:29;18.70;99.90
5055;DHT22;13829;48.990;8.346;2023-07-13T05:35:57;18.70;99.90
5055;DHT22;13829;48.990;8.346;2023-07-13T05:38:27;18.90;99.90
5055;DHT22;13829;48.990;8.346;2023-07-13T05:40:55;19.00;99.90
5055;DHT22;13829;48.990;8.346;2023-07-13T05:43:23;19.10;99.90
5055;DHT22;13829;48.990;8.346;2023-07-13T05:45:55;19.10;99.90
5055;DHT22;13829;48.990;8.346;2023-07-13T05:48:23;19.10;99.90
5055;DHT22;13829;48.990;8.346;2023-07-13T05:50:51;19.20;99.90
5055;DHT22;13829;48.990;8.346;2023-07-13T05:53:18;19.20;99.90
5055;DHT22;13829;48.990;8.346;2023-07-13T05:55:47;19.20;99.90
5055;DHT22;13829;48.990;8.346;2023-07-13T05:58:16;19.60;99.90
5055;DHT22;13829;48.990;8.346;2023-07-13T06:00:44;19.80;99.90
5055;DHT22;13829;48.990;8.346;2023-07-13T06:03:11;20.00;99.90
5055;DHT22;13829;48.990;8.346;2023-07-13T06:05:38;20.10;99.90
5055;DHT22;13829;48.990;8.346;2023-07-13T06:08:06;20.20;99.90
5055;DHT22;13829;48.990;8.346;2023-07-13T06:10:33;20.30;99.90
5055;DHT22;13829;48.990;8.346;2023-07-13T06:13:02;20.50;99.90
5055;DHT22;13829;48.990;8.346;2023-07-13T06:15:29;20.60;99.90
5055;DHT22;13829;48.990;8.346;2023-07-13T06:17:56;20.90;99.90
5055;DHT22;13829;48.990;8.346;2023-07-13T06:20:23;21.00;99.90
5055;DHT22;13829;48.990;8.346;2023-07-13T06:22:50;21.10;99.90
5055;DHT22;13829;48.990;8.346;2023-07-13T06:25:17;21.30;99.90
5055;DHT22;13829;48.990;8.346;2023-07-13T06:27:44;21.30;99.90
5055;DHT22;13829;48.990;8.346;2023-07-13T06:30:13;21.50;99.90
5055;DHT22;13829;48.990;8.346;2023-07-13T06:32:40;21.40;99.90
5055;DHT22;13829;48.990;8.346;2023-07-13T06:35:07;21.60;99.90
5055;DHT22;13829;48.990;8.346;2023-07-13T06:37:38;22.10;99.90
5055;DHT22;13829;48.990;8.346;2023-07-13T06:40:06;23.60;99.90
5055;DHT22;13829;48.990;8.346;2023-07-13T06:42:33;24.80;99.60
5055;DHT22;13829;48.990;8.346;2023-07-13T06:45:00;26.10;96.90
5055;DHT22;13829;48.990;8.346;2023-07-13T06:47:29;27.60;94.30
5055;DHT22;13829;48.990;8.346;2023-07-13T06:49:57;28.30;92.20
5055;DHT22;13829;48.990;8.346;2023-07-13T06:52:24;29.20;89.60
5055;DHT22;13829;48.990;8.346;2023-07-13T06:54:51;29.90;86.80
5055;DHT22;13829;48.990;8.346;2023-07-13T06:57:18;30.20;84.10
5055;DHT22;13829;48.990;8.346;2023-07-13T06:59:45;30.60;80.00
5055;DHT22;13829;48.990;8.346;2023-07-13T07:02:12;31.50;78.20
5055;DHT22;13829;48.990;8.346;2023-07-13T07:04:40;32.10;74.80
5055;DHT22;13829;48.990;8.346;2023-07-13T07:07:07;32.80;72.50
5055;DHT22;13829;48.990;8.346;2023-07-13T07:09:34;33.10;72.30
5055;DHT22;13829;48.990;8.346;2023-07-13T07:12:02;33.70;69.60
5055;DHT22;13829;48.990;8.346;2023-07-13T07:14:30;33.60;66.70
5055;DHT22;13829;48.990;8.346;2023-07-13T07:16:59;33.50;67.60
5055;DHT22;13829;48.990;8.346;2023-07-13T07:19:27;33.90;65.30
5055;DHT22;13829;48.990;8.346;2023-07-13T07:21:57;34.70;64.20
5055;DHT22;13829;48.990;8.346;2023-07-13T07:24:24;34.70;63.00
5055;DHT22;13829;48.990;8.346;2023-07-13T07:26:51;34.90;61.40
5055;DHT22;13829;48.990;8.346;2023-07-13T07:29:17;35.10;60.70
5055;DHT22;13829;48.990;8.346;2023-07-13T07:31:44;35.20;60.50
5055;DHT22;13829;48.990;8.346;2023-07-13T07:34:11;34.90;60.00
5055;DHT22;13829;48.990;8.346;2023-07-13T07:36:38;35.10;59.50
5055;DHT22;13829;48.990;8.346;2023-07-13T07:39:06;35.20;60.50
5055;DHT22;13829;48.990;8.346;2023-07-13T07:41:33;35.10;56.60
5055;DHT22;13829;48.990;8.346;2023-07-13T07:44:00;35.10;57.50
5055;DHT22;13829;48.990;8.346;2023-07-13T07:46:27;35.20;58.40
5055;DHT22;13829;48.990;8.346;2023-07-13T07:48:55;35.20;56.70
5055;DHT22;13829;48.990;8.346;2023-07-13T07:51:22;35.10;57.50
5055;DHT22;13829;48.990;8.346;2023-07-13T07:53:49;35.10;56.30
5055;DHT22;13829;48.990;8.346;2023-07-13T07:56:18;34.90;54.00
5055;DHT22;13829;48.990;8.346;2023-07-13T07:58:44;34.70;54.30
5055;DHT22;13829;48.990;8.346;2023-07-13T08:01:11;34.80;55.00
5055;DHT22;13829;48.990;8.346;2023-07-13T08:03:38;35.00;53.50
5055;DHT22;13829;48.990;8.346;2023-07-13T08:06:05;34.80;53.50
5055;DHT22;13829;48.990;8.346;2023-07-13T08:08:32;34.60;57.60
5055;DHT22;13829;48.990;8.346;2023-07-13T08:11:03;34.80;53.40
5055;DHT22;13829;48.990;8.346;2023-07-13T08:13:32;35.70;52.70
5055;DHT22;13829;48.990;8.346;2023-07-13T08:15:59;35.60;55.40
5055;DHT22;13829;48.990;8.346;2023-07-13T08:18:26;36.30;51.60
5055;DHT22;13829;48.990;8.346;2023-07-13T08:20:54;35.90;51.70
5055;DHT22;13829;48.990;8.346;2023-07-13T08:23:22;35.00;50.70
5055;DHT22;13829;48.990;8.346;2023-07-13T08:25:53;35.10;51.00
5055;DHT22;13829;48.990;8.346;2023-07-13T08:28:22;35.40;51.20
5055;DHT22;13829;48.990;8.346;2023-07-13T08:30:51;34.80;49.80
5055;DHT22;13829;48.990;8.346;2023-07-13T08:33:19;34.90;50.60
5055;DHT22;13829;48.990;8.346;2023-07-13T08:35:50;33.60;49.70
5055;DHT22;13829;48.990;8.346;2023-07-13T08:38:17;32.60;51.40
5055;DHT22;13829;48.990;8.346;2023-07-13T08:40:50;32.50;51.60
5055;DHT22;13829;48.990;8.346;2023-07-13T08:43:25;32.80;52.40
5055;DHT22;13829;48.990;8.346;2023-07-13T08:45:59;32.60;52.20
5055;DHT22;13829;48.990;8.346;2023-07-13T08:48:35;32.60;53.10
5055;DHT22;13829;48.990;8.346;2023-07-13T08:51:23;32.40;53.00
5055;DHT22;13829;48.990;8.346;2023-07-13T08:54:01;32.50;54.00
5055;DHT22;13829;48.990;8.346;2023-07-13T08:56:32;33.00;52.40
5055;DHT22;13829;48.990;8.346;2023-07-13T08:59:02;33.10;53.80
5055;DHT22;13829;48.990;8.346;2023-07-13T09:01:59;33.10;53.20
5055;DHT22;13829;48.990;8.346;2023-07-13T09:04:35;32.80;52.90
5055;DHT22;13829;48.990;8.346;2023-07-13T09:07:14;32.30;51.20
5055;DHT22;13829;48.990;8.346;2023-07-13T09:09:55;32.10;51.80
5055;DHT22;13829;48.990;8.346;2023-07-13T09:12:35;32.00;53.60
5055;DHT22;13829;48.990;8.346;2023-07-13T09:15:22;31.80;50.60
5055;DHT22;13829;48.990;8.346;2023-07-13T09:17:55;31.10;52.00
5055;DHT22;13829;48.990;8.346;2023-07-13T09:20:29;31.10;53.10
5055;DHT22;13829;48.990;8.346;2023-07-13T09:23:03;30.90;53.80
5055;DHT22;13829;48.990;8.346;2023-07-13T09:25:35;30.60;52.40
5055;DHT22;13829;48.990;8.346;2023-07-13T09:28:10;30.50;52.50
5055;DHT22;13829;48.990;8.346;2023-07-13T09:30:46;30.30;54.60
5055;DHT22;13829;48.990;8.346;2023-07-13T09:33:20;30.50;54.90
5055;DHT22;13829;48.990;8.346;2023-07-13T09:35:48;30.40;53.60
5055;DHT22;13829;48.990;8.346;2023-07-13T09:38:17;30.20;54.00
5055;DHT22;13829;48.990;8.346;2023-07-13T09:40:59;30.10;54.90
5055;DHT22;13829;48.990;8.346;2023-07-13T09:43:36;30.20;54.20
5055;DHT22;13829;48.990;8.346;2023-07-13T09:46:03;30.20;54.70
5055;DHT22;13829;48.990;8.346;2023-07-13T09:48:35;30.20;52.90
5055;DHT22;13829;48.990;8.346;2023-07-13T09:51:13;30.10;53.60
5055;DHT22;13829;48.990;8.346;2023-07-13T09:53:42;29.90;53.10
5055;DHT22;13829;48.990;8.346;2023-07-13T09:56:20;29.90;53.20
5055;DHT22;13829;48.990;8.346;2023-07-13T09:58:47;29.90;54.40
5055;DHT22;13829;48.990;8.346;2023-07-13T10:01:14;29.90;55.20
5055;DHT22;13829;48.990;8.346;2023-07-13T10:03:52;29.40;53.10
5055;DHT22;13829;48.990;8.346;2023-07-13T10:06:21;29.20;56.00
5055;DHT22;13829;48.990;8.346;2023-07-13T10:08:50;29.10;56.70
5055;DHT22;13829;48.990;8.346;2023-07-13T10:11:19;29.10;57.50
5055;DHT22;13829;48.990;8.346;2023-07-13T10:13:52;28.90;56.80
5055;DHT22;13829;48.990;8.346;2023-07-13T10:16:22;28.80;58.70
5055;DHT22;13829;48.990;8.346;2023-07-13T10:18:55;28.50;57.50
5055;DHT22;13829;48.990;8.346;2023-07-13T10:21:28;28.20;57.20
5055;DHT22;13829;48.990;8.346;2023-07-13T10:24:04;28.00;59.60
5055;DHT22;13829;48.990;8.346;2023-07-13T10:26:41;27.90;59.00
5055;DHT22;13829;48.990;8.346;2023-07-13T10:29:15;27.80;59.10
5055;DHT22;13829;48.990;8.346;2023-07-13T10:31:45;27.40;57.50
5055;DHT22;13829;48.990;8.346;2023-07-13T10:34:14;27.20;58.70
5055;DHT22;13829;48.990;8.346;2023-07-13T10:36:43;27.00;59.80
5055;DHT22;13829;48.990;8.346;2023-07-13T10:39:17;27.00;59.70
5055;DHT22;13829;48.990;8.346;2023-07-13T10:41:50;27.10;60.20
5055;DHT22;13829;48.990;8.346;2023-07-13T10:44:25;27.00;58.40
5055;DHT22;13829;48.990;8.346;2023-07-13T10:46:57;26.90;59.20
5055;DHT22;13829;48.990;8.346;2023-07-13T10:49:29;27.00;61.00
5055;DHT22;13829;48.990;8.346;2023-07-13T10:51:58;27.10;60.10
5055;DHT22;13829;48.990;8.346;2023-07-13T10:54:27;27.10;59.50
5055;DHT22;13829;48.990;8.346;2023-07-13T10:57:16;27.00;61.00
5055;DHT22;13829;48.990;8.346;2023-07-13T10:59:49;27.10;60.70
5055;DHT22;13829;48.990;8.346;2023-07-13T11:02:40;27.10;61.00
5055;DHT22;13829;48.990;8.346;2023-07-13T11:05:25;26.90;60.00
5055;DHT22;13829;48.990;8.346;2023-07-13T11:08:03;27.00;60.50
5055;DHT22;13829;48.990;8.346;2023-07-13T11:10:51;27.00;60.30
5055;DHT22;13829;48.990;8.346;2023-07-13T11:16:42;27.20;61.50
5055;DHT22;13829;48.990;8.346;2023-07-13T11:19:38;27.00;59.30
5055;DHT22;13829;48.990;8.346;2023-07-13T11:22:15;27.10;62.10
5055;DHT22;13829;48.990;8.346;2023-07-13T11:24:52;27.10;61.30
5055;DHT22;13829;48.990;8.346;2023-07-13T11:27:35;27.20;60.70
5055;DHT22;13829;48.990;8.346;2023-07-13T11:30:18;27.40;58.90
5055;DHT22;13829;48.990;8.346;2023-07-13T11:33:02;27.50;58.10
5055;DHT22;13829;48.990;8.346;2023-07-13T11:35:43;27.60;58.90
5055;DHT22;13829;48.990;8.346;2023-07-13T11:38:16;27.80;57.70
5055;DHT22;13829;48.990;8.346;2023-07-13T11:40:47;27.90;57.20
5055;DHT22;13829;48.990;8.346;2023-07-13T11:43:15;27.90;58.20
5055;DHT22;13829;48.990;8.346;2023-07-13T11:45:43;28.00;60.20
5055;DHT22;13829;48.990;8.346;2023-07-13T11:48:21;28.00;57.50
5055;DHT22;13829;48.990;8.346;2023-07-13T11:50:57;27.80;57.00
5055;DHT22;13829;48.990;8.346;2023-07-13T11:53:30;27.50;57.10
5055;DHT22;13829;48.990;8.346;2023-07-13T11:56:04;27.40;58.40
5055;DHT22;13829;48.990;8.346;2023-07-13T11:58:32;27.20;59.30
5055;DHT22;13829;48.990;8.346;2023-07-13T12:01:02;27.10;58.70
5055;DHT22;13829;48.990;8.346;2023-07-13T12:03:32;26.90;57.80
5055;DHT22;13829;48.990;8.346;2023-07-13T12:06:02;26.90;59.50
5055;DHT22;13829;48.990;8.346;2023-07-13T12:08:38;26.90;59.10
5055;DHT22;13829;48.990;8.346;2023-07-13T12:11:14;26.90;57.80
5055;DHT22;13829;48.990;8.346;2023-07-13T12:13:44;26.90;58.70
5055;DHT22;13829;48.990;8.346;2023-07-13T12:16:16;26.80;58.60
5055;DHT22;13829;48.990;8.346;2023-07-13T12:18:49;26.80;57.00
5055;DHT22;13829;48.990;8.346;2023-07-13T12:21:19;26.60;57.40
5055;DHT22;13829;48.990;8.346;2023-07-13T12:23:52;26.50;58.20
5055;DHT22;13829;48.990;8.346;2023-07-13T12:26:19;26.50;57.60
5055;DHT22;13829;48.990;8.346;2023-07-13T12:28:48;26.50;57.90
5055;DHT22;13829;48.990;8.346;2023-07-13T12:31:34;26.50;58.40
5055;DHT22;13829;48.990;8.346;2023-07-13T12:34:06;26.60;56.90
5055;DHT22;13829;48.990;8.346;2023-07-13T12:36:36;26.60;57.20
5055;DHT22;13829;48.990;8.346;2023-07-13T12:39:13;26.60;57.30
5055;DHT22;13829;48.990;8.346;2023-07-13T12:41:42;26.70;57.50
5055;DHT22;13829;48.990;8.346;2023-07-13T12:44:12;26.90;57.60
5055;DHT22;13829;48.990;8.346;2023-07-13T12:46:53;27.00;57.00
5055;DHT22;13829;48.990;8.346;2023-07-13T12:49:28;27.00;58.80
5055;DHT22;13829;48.990;8.346;2023-07-13T12:51:59;26.90;57.50
5055;DHT22;13829;48.990;8.346;2023-07-13T12:54:31;26.90;56.80
5055;DHT22;13829;48.990;8.346;2023-07-13T12:56:59;26.90;57.60
5055;DHT22;13829;48.990;8.346;2023-07-13T12:59:31;26.90;59.20
5055;DHT22;13829;48.990;8.346;2023-07-13T13:02:08;26.90;56.70
5055;DHT22;13829;48.990;8.346;2023-07-13T13:04:49;27.00;57.50
5055;DHT22;13829;48.990;8.346;2023-07-13T13:07:16;27.20;57.60
5055;DHT22;13829;48.990;8.346;2023-07-13T13:09:44;27.10;56.60
5055;DHT22;13829;48.990;8.346;2023-07-13T13:12:12;26.90;56.80
5055;DHT22;13829;48.990;8.346;2023-07-13T13:14:40;26.80;56.70
5055;DHT22;13829;48.990;8.346;2023-07-13T13:17:18;26.80;57.80
5055;DHT22;13829;48.990;8.346;2023-07-13T13:19:48;26.90;58.00
5055;DHT22;13829;48.990;8.346;2023-07-13T13:22:15;27.10;57.80
5055;DHT22;13829;48.990;8.346;2023-07-13T13:24:43;27.20;56.60
5055;DHT22;13829;48.990;8.346;2023-07-13T13:27:15;27.40;57.50
5055;DHT22;13829;48.990;8.346;2023-07-13T13:29:44;27.50;56.00
5055;DHT22;13829;48.990;8.346;2023-07-13T13:32:13;27.60;57.00
5055;DHT22;13829;48.990;8.346;2023-07-13T13:34:41;27.70;55.20
5055;DHT22;13829;48.990;8.346;2023-07-13T13:37:17;27.90;56.70
5055;DHT22;13829;48.990;8.346;2023-07-13T13:39:48;27.90;56.70
5055;DHT22;13829;48.990;8.346;2023-07-13T13:42:17;27.90;55.10
5055;DHT22;13829;48.990;8.346;2023-07-13T13:44:46;27.80;55.90
5055;DHT22;13829;48.990;8.346;2023-07-13T13:47:29;27.70;56.20
5055;DHT22;13829;48.990;8.346;2023-07-13T13:49:58;27.60;56.40
5055;DHT22;13829;48.990;8.346;2023-07-13T13:52:25;27.60;55.50
5055;DHT22;13829;48.990;8.346;2023-07-13T13:54:54;27.60;56.40
5055;DHT22;13829;48.990;8.346;2023-07-13T13:57:22;27.50;56.70
5055;DHT22;13829;48.990;8.346;2023-07-13T13:59:51;27.40;56.00
5055;DHT22;13829;48.990;8.346;2023-07-13T14:02:26;27.30;57.00
5055;DHT22;13829;48.990;8.346;2023-07-13T14:04:58;27.20;57.40
5055;DHT22;13829;48.990;8.346;2023-07-13T14:07:27;27.20;57.10
5055;DHT22;13829;48.990;8.346;2023-07-13T14:09:58;27.20;59.60
5055;DHT22;13829;48.990;8.346;2023-07-13T14:12:26;27.20;56.60
5055;DHT22;13829;48.990;8.346;2023-07-13T14:14:55;27.30;57.20
5055;DHT22;13829;48.990;8.346;2023-07-13T14:17:25;27.50;56.30
5055;DHT22;13829;48.990;8.346;2023-07-13T14:19:53;27.40;56.40
5055;DHT22;13829;48.990;8.346;2023-07-13T14:22:23;27.10;55.80
5055;DHT22;13829;48.990;8.346;2023-07-13T14:24:52;26.90;56.00
5055;DHT22;13829;48.990;8.346;2023-07-13T14:27:20;26.90;57.80
5055;DHT22;13829;48.990;8.346;2023-07-13T14:29:48;27.00;59.30
5055;DHT22;13829;48.990;8.346;2023-07-13T14:32:15;27.10;56.00
5055;DHT22;13829;48.990;8.346;2023-07-13T14:34:42;27.10;56.30
5055;DHT22;13829;48.990;8.346;2023-07-13T14:37:13;27.00;56.90
5055;DHT22;13829;48.990;8.346;2023-07-13T14:39:43;26.90;57.90
5055;DHT22;13829;48.990;8.346;2023-07-13T14:42:11;26.80;57.00
5055;DHT22;13829;48.990;8.346;2023-07-13T14:44:39;26.80;58.70
5055;DHT22;13829;48.990;8.346;2023-07-13T14:47:07;27.00;58.30
5055;DHT22;13829;48.990;8.346;2023-07-13T14:49:38;27.10;58.40
5055;DHT22;13829;48.990;8.346;2023-07-13T14:52:11;27.20;56.40
5055;DHT22;13829;48.990;8.346;2023-07-13T14:54:41;27.20;57.70
5055;DHT22;13829;48.990;8.346;2023-07-13T14:57:13;27.20;57.20
5055;DHT22;13829;48.990;8.346;2023-07-13T14:59:42;27.00;58.60
5055;DHT22;13829;48.990;8.346;2023-07-13T15:02:16;26.90;61.20
5055;DHT22;13829;48.990;8.346;2023-07-13T15:04:44;27.00;58.00
5055;DHT22;13829;48.990;8.346;2023-07-13T15:07:11;27.00;58.50
5055;DHT22;13829;48.990;8.346;2023-07-13T15:09:41;27.00;58.00
5055;DHT22;13829;48.990;8.346;2023-07-13T15:12:08;27.00;58.80
5055;DHT22;13829;48.990;8.346;2023-07-13T15:14:36;27.00;57.50
5055;DHT22;13829;48.990;8.346;2023-07-13T15:17:23;26.90;57.30
5055;DHT22;13829;48.990;8.346;2023-07-13T15:19:54;27.00;57.50
5055;DHT22;13829;48.990;8.346;2023-07-13T15:22:22;26.90;58.20
5055;DHT22;13829;48.990;8.346;2023-07-13T15:24:49;26.90;58.40
5055;DHT22;13829;48.990;8.346;2023-07-13T15:27:17;26.90;57.00
5055;DHT22;13829;48.990;8.346;2023-07-13T15:29:44;26.90;56.80
5055;DHT22;13829;48.990;8.346;2023-07-13T15:32:14;27.00;57.50
5055;DHT22;13829;48.990;8.346;2023-07-13T15:34:41;27.10;58.10
5055;DHT22;13829;48.990;8.346;2023-07-13T15:37:13;27.20;57.70
5055;DHT22;13829;48.990;8.346;2023-07-13T15:39:41;27.10;57.00
5055;DHT22;13829;48.990;8.346;2023-07-13T15:42:13;27.20;57.70
5055;DHT22;13829;48.990;8.346;2023-07-13T15:44:41;27.10;57.90
5055;DHT22;13829;48.990;8.346;2023-07-13T15:47:10;27.10;58.20
5055;DHT22;13829;48.990;8.346;2023-07-13T15:49:39;26.90;58.20
5055;DHT22;13829;48.990;8.346;2023-07-13T15:52:12;26.70;59.20
5055;DHT22;13829;48.990;8.346;2023-07-13T15:54:44;26.60;58.40
5055;DHT22;13829;48.990;8.346;2023-07-13T15:57:12;26.60;61.60
5055;DHT22;13829;48.990;8.346;2023-07-13T15:59:40;26.60;60.30
5055;DHT22;13829;48.990;8.346;2023-07-13T16:02:18;26.70;58.30
5055;DHT22;13829;48.990;8.346;2023-07-13T16:04:47;26.80;59.00